Time;durP1;ratioP1;P1;durP2;ratioP2;P2;SDS_P1;SDS_P2;PMS_P1;PMS_P2;Temp;Humidity;BMP_temperature;BMP_pressure;BME280_temperature;BME280_humidity;BME280_pressure;Samples;Min_cycle;Max_cycle;Signal;HPM_P1;HPM_P2
2023/07/20 07:40:11;;;;;;;10.30;6.35;;;26.20;99.90;;;;;;5060355;22;20088;-73
2023/07/20 07:42:37;;;;;;;8.35;5.63;;;26.20;99.90;;;;;;5021916;28;20061;-74
2023/07/20 07:45:03;;;;;;;18.67;6.45;;;26.20;99.90;;;;;;5024623;28;20088;-73
2023/07/20 07:47:29;;;;;;;6.60;5.72;;;26.30;99.90;;;;;;5024388;28;20104;-73
2023/07/20 07:49:55;;;;;;;6.93;5.07;;;26.30;99.90;;;;;;5023011;28;20101;-73
2023/07/20 07:52:21;;;;;;;6.20;5.13;;;26.40;99.90;;;;;;5024584;28;20021;-73
2023/07/20 07:54:47;;;;;;;6.57;5.45;;;26.40;99.90;;;;;;5022834;28;20072;-73
2023/07/20 07:57:13;;;;;;;6.60;5.85;;;26.40;99.90;;;;;;5024272;28;20017;-73
2023/07/20 07:59:40;;;;;;;10.07;6.18;;;26.40;99.90;;;;;;5022615;28;20109;-74
2023/07/20 08:02:06;;;;;;;7.40;6.00;;;26.50;99.90;;;;;;5024463;28;20044;-73
2023/07/20 08:04:31;;;;;;;11.23;5.97;;;26.50;99.90;;;;;;5004784;28;20026;-73
2023/07/20 08:06:59;;;;;;;7.25;5.63;;;26.60;99.90;;;;;;5024609;28;20076;-73
2023/07/20 08:09:24;;;;;;;6.72;6.22;;;26.60;99.90;;;;;;5014360;28;20029;-73
2023/07/20 08:11:50;;;;;;;12.35;6.93;;;26.60;99.90;;;;;;5018167;28;20049;-73
2023/07/20 08:14:16;;;;;;;6.47;5.88;;;26.70;99.90;;;;;;5031414;28;20021;-73
2023/07/20 08:16:42;;;;;;;7.10;6.40;;;26.70;99.90;;;;;;5024595;28;20041;-73
2023/07/20 08:19:08;;;;;;;8.95;6.70;;;26.70;99.90;;;;;;5021853;28;20029;-73
2023/07/20 08:21:34;;;;;;;9.50;6.72;;;26.80;99.90;;;;;;5024523;28;20366;-73
2023/07/20 08:23:59;;;;;;;11.70;7.15;;;26.70;99.90;;;;;;5021652;28;20026;-73
2023/07/20 08:26:25;;;;;;;8.07;6.90;;;26.70;99.90;;;;;;5024284;28;20022;-74
2023/07/20 08:28:51;;;;;;;11.73;8.18;;;26.80;99.90;;;;;;5026883;28;20034;-74
2023/07/20 08:31:16;;;;;;;8.68;7.72;;;26.70;99.90;;;;;;5011952;28;20095;-73
2023/07/20 08:33:43;;;;;;;13.95;8.30;;;26.70;99.90;;;;;;5007125;28;20099;-73
2023/07/20 08:36:08;;;;;;;12.85;8.07;;;26.80;99.90;;;;;;5020915;28;20033;-73
2023/07/20 08:38:34;;;;;;;13.70;9.15;;;26.80;99.90;;;;;;5024721;28;20025;-73
2023/07/20 08:41:01;;;;;;;10.05;8.48;;;26.90;99.90;;;;;;5025100;28;20046;-73
2023/07/20 08:43:27;;;;;;;15.00;8.43;;;27.00;99.90;;;;;;5020937;28;20518;-73
2023/07/20 08:45:57;;;;;;;15.90;9.13;;;27.00;99.90;;;;;;5020871;28;20068;-73
2023/07/20 08:48:24;;;;;;;12.10;8.55;;;27.00;99.90;;;;;;5020911;28;20489;-73
2023/07/20 08:50:54;;;;;;;15.55;8.55;;;27.00;99.90;;;;;;5014123;28;20429;-73
2023/07/20 08:53:20;;;;;;;13.38;7.25;;;27.10;99.90;;;;;;5012214;28;20291;-73
2023/07/20 08:55:50;;;;;;;11.63;8.55;;;27.10;99.90;;;;;;5023321;28;20032;-73
2023/07/20 08:58:16;;;;;;;12.82;7.05;;;27.20;99.90;;;;;;5021904;28;20077;-73
2023/07/20 09:00:42;;;;;;;9.98;7.82;;;27.20;99.90;;;;;;5023044;28;20033;-73
2023/07/20 09:03:08;;;;;;;10.80;7.60;;;27.20;99.90;;;;;;5021746;28;20014;-73
2023/07/20 09:05:35;;;;;;;12.77;8.18;;;27.20;99.90;;;;;;5022883;28;20025;-73
2023/07/20 09:08:03;;;;;;;14.25;7.93;;;27.30;99.90;;;;;;5021897;28;20282;-73
2023/07/20 09:10:29;;;;;;;18.15;8.70;;;27.30;99.90;;;;;;5023512;28;20071;-73
2023/07/20 09:12:55;;;;;;;18.17;9.95;;;27.40;99.90;;;;;;5018219;28;20025;-74
2023/07/20 09:15:22;;;;;;;13.77;7.65;;;27.40;99.90;;;;;;5025828;28;20022;-73
2023/07/20 09:17:49;;;;;;;9.43;6.88;;;27.30;99.90;;;;;;5004854;28;20030;-73
2023/07/20 09:20:16;;;;;;;9.52;7.68;;;27.40;99.90;;;;;;5021576;28;20631;-73
2023/07/20 09:22:43;;;;;;;13.20;8.18;;;27.50;99.90;;;;;;5022162;28;20032;-74
2023/07/20 09:25:16;;;;;;;13.27;8.15;;;27.50;99.90;;;;;;5021752;28;20014;-73
2023/07/20 09:27:44;;;;;;;13.45;7.97;;;27.60;99.90;;;;;;5021305;28;20045;-73
2023/07/20 09:30:13;;;;;;;9.85;7.75;;;27.60;99.90;;;;;;5022463;28;20044;-73
2023/07/20 09:32:46;;;;;;;11.18;7.43;;;27.60;99.90;;;;;;5020639;28;20480;-73
2023/07/20 09:35:13;;;;;;;9.50;7.85;;;27.70;99.90;;;;;;5019989;28;20061;-73
2023/07/20 09:37:39;;;;;;;10.65;7.22;;;27.80;99.90;;;;;;5023508;28;20044;-73
2023/07/20 09:40:08;;;;;;;14.85;7.50;;;27.80;99.90;;;;;;5022692;28;20497;-73
2023/07/20 09:42:36;;;;;;;10.77;7.47;;;27.90;99.90;;;;;;5021873;28;20400;-74
2023/07/20 09:45:02;;;;;;;12.48;7.25;;;28.00;99.90;;;;;;5020335;28;20026;-73
2023/07/20 09:47:29;;;;;;;8.75;7.53;;;28.10;99.90;;;;;;5022816;28;20104;-74
2023/07/20 09:49:59;;;;;;;12.40;6.65;;;28.10;99.90;;;;;;5018979;28;20038;-73
2023/07/20 09:52:26;;;;;;;13.63;7.40;;;28.10;99.90;;;;;;5017275;28;20028;-74
2023/07/20 09:54:52;;;;;;;7.60;6.95;;;28.20;99.90;;;;;;5016512;28;20048;-73
2023/07/20 09:57:18;;;;;;;11.27;7.75;;;28.20;99.90;;;;;;4999644;28;20120;-74
2023/07/20 09:59:44;;;;;;;9.55;6.55;;;28.20;99.90;;;;;;5016166;28;20108;-73
2023/07/20 10:02:33;;;;;;;9.15;6.53;;;28.20;99.90;;;;;;5018418;28;20028;-74
2023/07/20 10:05:04;;;;;;;10.00;6.90;;;28.30;99.90;;;;;;5015390;28;20516;-73
2023/07/20 10:07:30;;;;;;;8.32;7.47;;;28.40;99.90;;;;;;5019969;28;20152;-73
2023/07/20 10:10:01;;;;;;;8.65;6.55;;;28.40;99.90;;;;;;5024276;28;20027;-75
2023/07/20 10:12:27;;;;;;;10.73;6.47;;;28.50;99.90;;;;;;5018425;28;20030;-75
2023/07/20 10:15:36;;;;;;;9.77;7.57;;;28.50;99.90;;;;;;5020535;28;20033;-74
2023/07/20 10:18:21;;;;;;;10.35;6.68;;;28.50;99.90;;;;;;5016750;28;20233;-75
2023/07/20 10:20:49;;;;;;;9.77;6.95;;;28.60;99.90;;;;;;5020913;28;20026;-74
2023/07/20 10:23:15;;;;;;;8.52;7.07;;;28.70;99.90;;;;;;5003268;28;20029;-75
2023/07/20 10:25:42;;;;;;;10.82;7.85;;;28.70;99.90;;;;;;5020881;28;20395;-75
2023/07/20 10:28:09;;;;;;;8.40;7.05;;;28.80;99.90;;;;;;5024068;28;20026;-75
2023/07/20 10:30:35;;;;;;;8.63;7.75;;;28.90;99.90;;;;;;5020678;28;20032;-75
2023/07/20 10:33:05;;;;;;;11.32;7.32;;;28.90;99.90;;;;;;5021006;28;20037;-75
2023/07/20 10:35:54;;;;;;;10.32;7.75;;;29.00;99.90;;;;;;5020272;28;20115;-75
2023/07/20 10:38:47;;;;;;;9.75;6.85;;;29.00;99.90;;;;;;5012716;28;20017;-76
2023/07/20 10:41:21;;;;;;;8.05;7.25;;;29.10;99.90;;;;;;5017766;28;20065;-76
2023/07/20 10:43:47;;;;;;;7.78;6.90;;;29.20;99.90;;;;;;5001095;28;20467;-76
2023/07/20 10:46:13;;;;;;;12.57;7.75;;;29.30;99.90;;;;;;5016153;28;20030;-76
2023/07/20 10:49:08;;;;;;;9.27;7.65;;;29.30;99.90;;;;;;5016842;28;20376;-76
2023/07/20 10:51:44;;;;;;;10.25;7.18;;;29.30;99.90;;;;;;5016089;28;20112;-75
2023/07/20 10:54:30;;;;;;;11.75;7.25;;;29.40;99.90;;;;;;5014755;28;20068;-75
2023/07/20 10:56:57;;;;;;;9.68;7.25;;;29.60;99.90;;;;;;4997016;28;20128;-75
2023/07/20 10:59:23;;;;;;;7.90;7.10;;;29.60;99.90;;;;;;5015893;28;20021;-75
2023/07/20 11:01:49;;;;;;;10.95;6.90;;;29.70;99.90;;;;;;5014688;28;20040;-75
2023/07/20 11:04:18;;;;;;;7.93;6.85;;;29.80;99.90;;;;;;5016674;28;20050;-76
2023/07/20 11:06:45;;;;;;;9.68;7.05;;;29.80;99.90;;;;;;5019568;28;20492;-75
2023/07/20 11:09:14;;;;;;;8.80;6.45;;;30.00;99.90;;;;;;5022478;28;20029;-75
2023/07/20 11:12:16;;;;;;;13.70;6.60;;;30.00;99.90;;;;;;5015999;28;20036;-75
2023/07/20 11:14:56;;;;;;;7.60;6.38;;;30.00;99.90;;;;;;5005145;28;20041;-75
2023/07/20 11:17:30;;;;;;;7.70;6.28;;;30.10;99.90;;;;;;5019219;28;20025;-75
2023/07/20 11:20:03;;;;;;;8.13;6.18;;;30.10;99.90;;;;;;5001289;28;20033;-75
2023/07/20 11:22:30;;;;;;;8.52;6.43;;;30.10;99.90;;;;;;5024509;28;20017;-75
2023/07/20 11:24:57;;;;;;;8.40;6.03;;;30.20;99.90;;;;;;5022788;28;20467;-75
2023/07/20 11:27:23;;;;;;;9.13;6.15;;;30.30;99.90;;;;;;5000236;28;20030;-75
2023/07/20 11:29:50;;;;;;;12.43;6.95;;;30.30;99.90;;;;;;5021269;28;20025;-75
2023/07/20 11:32:23;;;;;;;7.85;6.38;;;30.30;99.90;;;;;;5018629;28;20022;-75
2023/07/20 11:34:49;;;;;;;11.50;6.70;;;30.40;99.90;;;;;;5005665;28;20030;-76
2023/07/20 11:37:16;;;;;;;10.82;7.00;;;30.50;99.90;;;;;;5011078;28;20124;-75
2023/07/20 11:39:42;;;;;;;8.85;6.30;;;30.40;99.90;;;;;;5022176;28;20073;-76
2023/07/20 11:42:08;;;;;;;8.95;6.32;;;30.50;99.90;;;;;;5025717;28;20534;-76
2023/07/20 11:44:34;;;;;;;16.33;7.05;;;30.50;99.90;;;;;;5020803;28;20021;-75
2023/07/20 11:47:08;;;;;;;11.48;6.40;;;30.70;99.90;;;;;;5018449;28;20026;-75
2023/07/20 11:49:42;;;;;;;11.50;6.72;;;30.80;99.90;;;;;;5020028;28;20045;-75
2023/07/20 11:52:15;;;;;;;8.65;6.07;;;30.80;99.90;;;;;;5019975;28;20591;-76
2023/07/20 11:54:41;;;;;;;7.10;5.70;;;30.80;99.90;;;;;;5016967;28;20020;-76
2023/07/20 11:57:10;;;;;;;8.23;6.40;;;30.90;99.90;;;;;;5018371;28;20076;-76
2023/07/20 11:59:36;;;;;;;8.60;6.47;;;31.10;99.90;;;;;;5021270;28;20529;-76
2023/07/20 12:02:06;;;;;;;12.55;7.28;;;31.20;99.90;;;;;;5017455;28;20108;-75
2023/07/20 12:04:33;;;;;;;7.03;6.38;;;31.30;99.90;;;;;;5017697;28;20045;-76
2023/07/20 12:06:59;;;;;;;10.73;6.22;;;31.40;99.90;;;;;;5004663;28;20582;-76
2023/07/20 12:09:24;;;;;;;9.27;6.85;;;31.50;99.90;;;;;;5031258;28;20587;-76
2023/07/20 12:11:50;;;;;;;7.22;5.78;;;31.60;99.90;;;;;;5015045;28;20105;-76
2023/07/20 12:14:16;;;;;;;7.60;5.93;;;31.60;99.90;;;;;;5016827;28;20056;-76
2023/07/20 12:16:43;;;;;;;6.68;5.95;;;31.70;99.90;;;;;;5019644;28;20064;-76
2023/07/20 12:19:12;;;;;;;7.22;5.63;;;31.70;99.90;;;;;;5017511;28;20454;-76
2023/07/20 12:21:40;;;;;;;9.68;6.38;;;31.80;99.90;;;;;;5016958;28;20033;-76
2023/07/20 12:24:09;;;;;;;8.52;6.15;;;31.90;99.90;;;;;;5019735;28;20044;-76
2023/07/20 12:26:35;;;;;;;6.85;5.57;;;32.00;99.90;;;;;;5000407;28;20034;-76
2023/07/20 12:29:03;;;;;;;11.45;6.22;;;32.10;99.90;;;;;;5019853;28;20033;-76
2023/07/20 12:31:29;;;;;;;6.90;6.18;;;32.20;99.90;;;;;;5020372;28;20458;-75
2023/07/20 12:33:58;;;;;;;9.02;6.10;;;32.30;99.90;;;;;;5020144;28;20026;-76
2023/07/20 12:36:24;;;;;;;9.63;6.40;;;32.30;99.90;;;;;;5016355;28;20036;-76
2023/07/20 12:38:50;;;;;;;9.20;5.60;;;32.30;99.90;;;;;;5017862;28;20026;-76
2023/07/20 12:41:16;;;;;;;9.85;5.63;;;32.40;99.90;;;;;;5022807;28;20046;-76
2023/07/20 12:43:43;;;;;;;7.60;5.60;;;32.40;99.90;;;;;;5017067;28;20025;-76
2023/07/20 12:46:09;;;;;;;6.70;5.57;;;32.30;99.90;;;;;;5029955;28;20116;-76
2023/07/20 12:48:40;;;;;;;7.10;5.47;;;32.40;99.90;;;;;;5020656;28;20060;-76
2023/07/20 12:51:06;;;;;;;6.32;5.60;;;32.50;99.90;;;;;;5025186;28;20116;-77
2023/07/20 12:53:32;;;;;;;9.27;5.47;;;32.60;99.90;;;;;;5022769;28;20516;-76
2023/07/20 12:55:59;;;;;;;10.68;6.10;;;32.60;99.90;;;;;;5020156;28;20033;-76
2023/07/20 12:58:24;;;;;;;7.25;5.28;;;32.60;99.90;;;;;;5017753;28;20087;-76
2023/07/20 13:00:50;;;;;;;5.93;5.32;;;32.70;99.90;;;;;;5019096;28;20432;-76
2023/07/20 13:03:18;;;;;;;10.02;5.43;;;32.80;99.90;;;;;;5017285;28;20382;-76
2023/07/20 13:05:44;;;;;;;7.60;5.28;;;32.80;99.90;;;;;;5018301;28;20018;-76
2023/07/20 13:08:10;;;;;;;7.60;5.57;;;32.80;99.90;;;;;;5008813;28;20502;-76
2023/07/20 13:10:36;;;;;;;6.95;4.93;;;32.90;99.90;;;;;;5018170;28;20025;-76
2023/07/20 13:13:02;;;;;;;9.75;5.45;;;33.10;99.90;;;;;;5015303;28;20105;-76
2023/07/20 13:15:42;;;;;;;7.85;5.13;;;33.30;99.90;;;;;;5008177;28;20055;-76
2023/07/20 13:18:08;;;;;;;11.30;6.28;;;33.40;99.90;;;;;;5002177;28;20073;-76
2023/07/20 13:20:34;;;;;;;11.95;5.30;;;33.40;99.90;;;;;;5009668;28;20037;-76
2023/07/20 13:22:59;;;;;;;7.60;5.20;;;33.30;99.90;;;;;;5017099;28;20428;-76
2023/07/20 13:25:25;;;;;;;10.38;5.65;;;33.30;98.80;;;;;;5021210;28;20037;-76
2023/07/20 13:27:51;;;;;;;8.05;5.35;;;33.40;99.90;;;;;;5016674;28;20029;-76
2023/07/20 13:30:17;;;;;;;8.30;4.88;;;33.40;99.10;;;;;;5007137;28;20033;-76
2023/07/20 13:32:44;;;;;;;5.97;4.65;;;33.40;99.90;;;;;;5018062;28;20037;-76
2023/07/20 13:35:10;;;;;;;8.48;5.78;;;33.60;99.90;;;;;;5017155;28;20045;-76
2023/07/20 13:37:39;;;;;;;5.80;5.18;;;33.80;99.90;;;;;;5018206;28;20022;-76
2023/07/20 13:40:06;;;;;;;10.70;5.72;;;33.90;99.40;;;;;;5018741;28;20069;-76
2023/07/20 13:42:32;;;;;;;11.48;5.18;;;33.80;96.90;;;;;;5015572;28;20021;-76
2023/07/20 13:44:59;;;;;;;7.75;5.10;;;33.50;95.70;;;;;;5015739;28;20026;-76
2023/07/20 13:47:24;;;;;;;8.07;5.03;;;33.60;98.30;;;;;;5018252;28;20040;-76
2023/07/20 13:49:50;;;;;;;6.60;4.97;;;33.80;98.50;;;;;;5020958;28;20022;-76
2023/07/20 13:52:16;;;;;;;9.57;5.25;;;33.90;99.10;;;;;;5020425;28;20029;-74
2023/07/20 13:54:41;;;;;;;7.05;5.40;;;34.00;99.70;;;;;;5020420;28;20033;-74
2023/07/20 13:57:10;;;;;;;11.98;5.40;;;34.20;99.50;;;;;;5022039;28;20064;-74
2023/07/20 13:59:36;;;;;;;5.90;5.03;;;33.80;95.80;;;;;;5020326;28;20468;-74
2023/07/20 14:02:02;;;;;;;7.57;4.90;;;33.80;96.50;;;;;;5019162;28;20064;-74
2023/07/20 14:04:28;;;;;;;11.10;5.55;;;33.90;96.10;;;;;;5015721;28;20078;-74
2023/07/20 14:06:54;;;;;;;6.75;5.60;;;34.20;96.70;;;;;;5018632;28;20029;-74
2023/07/20 14:09:20;;;;;;;9.10;5.80;;;34.30;98.50;;;;;;5018622;28;20033;-74
2023/07/20 14:11:45;;;;;;;9.27;4.88;;;34.30;97.00;;;;;;5013541;28;20101;-74
2023/07/20 14:14:11;;;;;;;6.53;5.15;;;34.50;97.70;;;;;;5018005;28;20037;-74
2023/07/20 14:16:37;;;;;;;5.53;5.03;;;34.40;98.60;;;;;;5021390;28;20112;-74
2023/07/20 14:19:04;;;;;;;7.65;5.47;;;34.50;97.60;;;;;;5017871;28;20018;-74
2023/07/20 14:21:31;;;;;;;7.57;5.15;;;34.60;95.80;;;;;;5006541;28;20029;-74
2023/07/20 14:23:57;;;;;;;6.93;5.13;;;34.50;96.00;;;;;;4998494;28;20095;-75
2023/07/20 14:26:23;;;;;;;8.85;5.75;;;34.70;96.10;;;;;;5006622;28;20029;-74
2023/07/20 14:28:49;;;;;;;8.90;4.85;;;34.70;97.20;;;;;;5016926;28;20041;-74
2023/07/20 14:31:15;;;;;;;7.55;5.32;;;34.90;96.40;;;;;;5015769;28;20185;-74
2023/07/20 14:33:41;;;;;;;8.77;5.55;;;35.00;96.30;;;;;;5017691;28;20527;-74
2023/07/20 14:36:09;;;;;;;7.90;5.30;;;35.10;96.90;;;;;;5015832;28;20124;-74
2023/07/20 14:38:35;;;;;;;6.00;4.55;;;35.10;95.70;;;;;;5017483;28;20022;-74
2023/07/20 14:41:01;;;;;;;9.75;5.63;;;35.10;94.30;;;;;;5023060;28;20473;-74
2023/07/20 14:43:27;;;;;;;7.57;4.90;;;35.10;94.20;;;;;;5014089;28;20026;-74
2023/07/20 14:45:54;;;;;;;8.35;5.53;;;35.30;95.00;;;;;;5016347;28;20061;-74
2023/07/20 14:48:20;;;;;;;5.85;5.00;;;35.30;94.60;;;;;;5017001;28;20081;-75
2023/07/20 14:50:47;;;;;;;11.00;5.50;;;35.30;93.20;;;;;;5014676;28;20432;-74
2023/07/20 14:53:13;;;;;;;13.68;5.50;;;35.40;93.20;;;;;;5008513;28;20096;-74
2023/07/20 14:55:39;;;;;;;7.53;5.00;;;35.50;93.90;;;;;;5015514;28;20021;-74
2023/07/20 14:58:04;;;;;;;8.93;5.53;;;35.50;94.00;;;;;;5016850;28;20684;-74
2023/07/20 15:00:30;;;;;;;12.05;5.80;;;35.40;91.90;;;;;;5016265;28;20555;-74
2023/07/20 15:02:56;;;;;;;6.20;4.78;;;35.60;92.40;;;;;;5016377;28;20036;-74
2023/07/20 15:05:23;;;;;;;9.90;5.45;;;35.80;94.00;;;;;;5016640;28;20104;-74
2023/07/20 15:07:49;;;;;;;7.82;5.53;;;36.00;94.00;;;;;;4998828;28;20125;-74
2023/07/20 15:10:16;;;;;;;13.38;5.60;;;36.10;92.60;;;;;;5017977;28;20057;-74
2023/07/20 15:12:42;;;;;;;8.65;5.80;;;36.10;91.80;;;;;;5014185;28;20038;-74
2023/07/20 15:15:09;;;;;;;8.50;5.47;;;36.10;92.50;;;;;;5016129;28;20029;-73
2023/07/20 15:17:36;;;;;;;10.68;4.80;;;36.10;93.50;;;;;;5015938;28;20025;-74
2023/07/20 15:20:06;;;;;;;5.82;5.00;;;36.40;93.80;;;;;;5017018;28;20097;-74
2023/07/20 15:22:33;;;;;;;6.25;5.32;;;36.50;93.00;;;;;;5015232;28;20038;-74
2023/07/20 15:24:59;;;;;;;6.88;4.85;;;36.60;92.90;;;;;;5016878;28;20429;-74
2023/07/20 15:27:24;;;;;;;7.50;5.22;;;36.70;92.00;;;;;;4997911;28;20140;-74
2023/07/20 15:29:50;;;;;;;6.85;5.00;;;36.60;91.10;;;;;;5016754;28;20105;-74
2023/07/20 15:32:18;;;;;;;7.43;5.65;;;36.70;92.10;;;;;;5015982;28;20501;-73
2023/07/20 15:34:44;;;;;;;7.45;5.55;;;36.90;92.10;;;;;;5018518;28;20536;-74
2023/07/20 15:37:10;;;;;;;9.90;5.20;;;36.60;89.10;;;;;;5014822;28;20069;-73
2023/07/20 15:39:39;;;;;;;8.95;4.88;;;36.50;91.00;;;;;;5000760;28;20049;-74
2023/07/20 15:42:06;;;;;;;7.25;5.00;;;36.80;91.90;;;;;;4999381;28;20358;-74
2023/07/20 15:44:31;;;;;;;9.20;5.85;;;36.90;90.80;;;;;;4996843;28;20507;-74
2023/07/20 15:46:57;;;;;;;10.75;6.05;;;36.80;87.40;;;;;;5017357;28;20125;-74
2023/07/20 15:49:27;;;;;;;10.30;5.75;;;36.90;90.00;;;;;;5014707;28;20504;-74
2023/07/20 15:51:53;;;;;;;12.70;5.93;;;36.90;90.90;;;;;;5018487;28;20037;-74
2023/07/20 15:54:18;;;;;;;8.40;5.35;;;37.00;90.90;;;;;;5018546;28;20018;-74
2023/07/20 15:56:44;;;;;;;7.25;4.78;;;37.10;88.80;;;;;;5020108;28;20034;-74
2023/07/20 15:59:12;;;;;;;6.07;4.95;;;37.10;88.50;;;;;;5018417;28;20161;-74
2023/07/20 16:01:38;;;;;;;5.05;4.63;;;37.00;89.20;;;;;;5021165;28;20026;-74
2023/07/20 16:04:05;;;;;;;9.82;5.47;;;37.20;88.50;;;;;;5017624;28;20024;-74
2023/07/20 16:06:32;;;;;;;9.98;4.50;;;37.40;88.70;;;;;;5021028;28;20037;-74
2023/07/20 16:08:58;;;;;;;7.85;5.07;;;37.50;89.40;;;;;;5019374;28;20026;-74
2023/07/20 16:11:24;;;;;;;10.10;5.38;;;37.70;87.60;;;;;;5019499;28;20080;-74
2023/07/20 16:13:53;;;;;;;8.40;4.47;;;37.70;88.80;;;;;;5017057;28;20040;-74
2023/07/20 16:16:18;;;;;;;11.55;5.43;;;38.10;88.70;;;;;;5008649;28;20456;-74
2023/07/20 16:18:44;;;;;;;9.85;5.80;;;38.00;86.20;;;;;;5023001;28;20030;-74
2023/07/20 16:21:10;;;;;;;6.60;4.90;;;38.00;85.40;;;;;;5025645;28;20061;-74
2023/07/20 16:23:36;;;;;;;8.05;5.03;;;38.10;85.70;;;;;;5008934;28;20045;-74
2023/07/20 16:26:03;;;;;;;14.50;5.75;;;38.00;84.80;;;;;;5022139;28;20037;-74
2023/07/20 16:28:29;;;;;;;11.90;5.10;;;38.00;82.00;;;;;;5019162;28;20329;-74
2023/07/20 16:30:55;;;;;;;6.88;4.63;;;37.80;83.30;;;;;;5011981;28;20025;-74
2023/07/20 16:33:20;;;;;;;9.13;5.15;;;37.90;85.00;;;;;;5019442;28;20033;-74
2023/07/20 16:35:46;;;;;;;7.72;5.45;;;38.10;83.70;;;;;;5020763;28;20095;-74
2023/07/20 16:38:12;;;;;;;5.80;4.53;;;38.10;84.50;;;;;;5019037;28;20120;-74
2023/07/20 16:40:38;;;;;;;10.27;5.57;;;38.10;83.80;;;;;;5023775;28;20042;-74
2023/07/20 16:43:04;;;;;;;7.53;5.43;;;38.30;82.90;;;;;;5015937;28;20041;-75
2023/07/20 16:45:32;;;;;;;6.53;5.13;;;38.30;81.70;;;;;;5018811;28;20083;-74
2023/07/20 16:47:58;;;;;;;6.05;5.43;;;38.40;80.90;;;;;;5020233;28;20412;-74
2023/07/20 16:50:24;;;;;;;7.82;5.38;;;38.30;81.00;;;;;;5017657;28;20041;-74
2023/07/20 16:52:54;;;;;;;10.10;5.35;;;38.00;82.50;;;;;;5020371;28;20025;-74
2023/07/20 16:55:20;;;;;;;9.47;5.67;;;38.00;83.00;;;;;;4999837;28;20520;-74
2023/07/20 16:57:46;;;;;;;13.63;5.70;;;38.20;84.90;;;;;;5019986;28;20064;-76
2023/07/20 17:00:14;;;;;;;7.70;5.63;;;38.10;82.40;;;;;;5018074;28;20071;-75
2023/07/20 17:02:40;;;;;;;11.65;6.57;;;37.40;85.10;;;;;;5021542;28;20030;-75
2023/07/20 17:05:09;;;;;;;12.55;6.00;;;36.80;86.90;;;;;;5021975;28;20044;-74
2023/07/20 17:07:39;;;;;;;16.20;5.72;;;36.20;87.10;;;;;;5017796;28;20021;-74
2023/07/20 17:10:06;;;;;;;15.07;5.68;;;36.30;88.30;;;;;;5009460;28;20496;-74
2023/07/20 17:12:33;;;;;;;12.32;5.60;;;36.60;88.10;;;;;;5032340;28;20029;-77
2023/07/20 17:14:59;;;;;;;9.85;6.22;;;36.80;89.20;;;;;;5030237;28;20393;-76
2023/07/20 17:17:24;;;;;;;8.40;5.88;;;37.00;89.00;;;;;;5028720;28;20026;-75
2023/07/20 17:19:50;;;;;;;13.38;6.38;;;37.10;88.20;;;;;;5026956;28;20053;-75
2023/07/20 17:22:16;;;;;;;6.85;5.43;;;37.10;88.40;;;;;;5030992;28;20451;-75
2023/07/20 17:24:41;;;;;;;8.07;6.43;;;37.00;89.70;;;;;;5026418;28;20538;-75
2023/07/20 17:27:07;;;;;;;6.45;5.47;;;36.90;89.40;;;;;;5009930;28;20013;-75
2023/07/20 17:29:33;;;;;;;41.03;6.93;;;36.80;90.40;;;;;;5029913;28;20049;-75
2023/07/20 17:31:58;;;;;;;16.20;6.30;;;36.70;91.50;;;;;;5029764;28;20477;-75
2023/07/20 17:34:24;;;;;;;7.32;5.40;;;36.50;91.10;;;;;;5030062;28;20111;-75
2023/07/20 17:36:50;;;;;;;9.02;5.60;;;36.30;91.20;;;;;;5026156;28;20032;-75
2023/07/20 17:39:16;;;;;;;7.93;5.03;;;36.10;91.60;;;;;;5021971;28;20097;-75
2023/07/20 17:41:42;;;;;;;7.22;5.78;;;35.70;92.60;;;;;;5029933;28;20032;-75
2023/07/20 17:44:08;;;;;;;5.60;5.00;;;35.30;93.40;;;;;;5011811;28;20393;-75
2023/07/20 17:46:34;;;;;;;6.03;5.50;;;35.10;94.10;;;;;;5008765;28;20080;-75
2023/07/20 17:49:02;;;;;;;16.35;5.68;;;34.80;95.20;;;;;;5026120;28;20025;-75
2023/07/20 17:51:29;;;;;;;9.10;6.25;;;34.50;96.30;;;;;;5026402;28;20059;-74
2023/07/20 17:53:54;;;;;;;10.88;5.88;;;34.20;97.30;;;;;;5026553;28;20104;-74
2023/07/20 17:56:20;;;;;;;6.72;5.95;;;33.80;99.30;;;;;;5020732;28;20108;-74
2023/07/20 17:58:46;;;;;;;9.13;5.78;;;33.40;99.90;;;;;;5014131;28;20041;-74
2023/07/20 18:01:12;;;;;;;12.07;5.35;;;33.20;99.90;;;;;;5017336;28;20021;-73
2023/07/20 18:03:38;;;;;;;8.63;5.78;;;33.00;99.90;;;;;;5013821;28;20098;-73
2023/07/20 18:06:06;;;;;;;11.02;5.55;;;32.80;99.90;;;;;;5017187;28;20503;-74
2023/07/20 18:08:32;;;;;;;9.40;5.65;;;32.60;99.90;;;;;;4996184;28;20030;-73
2023/07/20 18:11:09;;;;;;;14.65;6.43;;;32.40;99.90;;;;;;5020149;28;20030;-74
2023/07/20 18:13:35;;;;;;;11.30;6.20;;;32.20;99.90;;;;;;5019348;28;20033;-74
2023/07/20 18:16:01;;;;;;;11.10;5.63;;;32.00;99.90;;;;;;5003611;28;20029;-74
2023/07/20 18:18:26;;;;;;;11.65;5.97;;;31.80;99.90;;;;;;5018577;28;20470;-75
2023/07/20 18:20:52;;;;;;;6.93;5.55;;;31.60;99.90;;;;;;5017452;28;20055;-75
2023/07/20 18:23:18;;;;;;;13.75;6.38;;;31.40;99.90;;;;;;5014643;28;20025;-75
2023/07/20 18:25:47;;;;;;;10.80;6.78;;;31.30;99.90;;;;;;5018537;28;20018;-74
2023/07/20 18:28:13;;;;;;;12.13;6.00;;;31.10;99.90;;;;;;5001794;28;20017;-75
2023/07/20 18:30:44;;;;;;;7.85;5.93;;;31.00;99.90;;;;;;5017083;28;20025;-75
2023/07/20 18:33:10;;;;;;;9.77;6.45;;;30.90;99.90;;;;;;5006769;28;20042;-75
2023/07/20 18:35:35;;;;;;;7.50;5.65;;;30.70;99.90;;;;;;5016623;28;20121;-75
2023/07/20 18:38:01;;;;;;;8.95;5.93;;;30.50;99.90;;;;;;5014901;28;20026;-75
2023/07/20 18:40:27;;;;;;;11.80;6.88;;;30.40;99.90;;;;;;5018923;28;20377;-75
2023/07/20 18:42:55;;;;;;;7.03;6.35;;;30.20;99.90;;;;;;5011674;28;20026;-75
2023/07/20 18:45:21;;;;;;;9.20;6.35;;;30.10;99.90;;;;;;5017342;28;20083;-75
2023/07/20 18:47:47;;;;;;;10.82;6.68;;;30.00;99.90;;;;;;5016142;28;20034;-74
2023/07/20 18:50:13;;;;;;;9.45;6.60;;;29.80;99.90;;;;;;5021702;28;20507;-74
2023/07/20 18:52:39;;;;;;;9.00;6.38;;;29.80;99.90;;;;;;5016051;28;20426;-75
2023/07/20 18:55:05;;;;;;;7.55;6.13;;;29.60;99.90;;;;;;5014020;28;20029;-75
2023/07/20 18:57:32;;;;;;;11.20;6.30;;;29.70;99.90;;;;;;5017828;28;20485;-74
2023/07/20 18:59:57;;;;;;;7.10;6.32;;;29.70;99.90;;;;;;5017878;28;20629;-75
2023/07/20 19:02:23;;;;;;;7.13;6.10;;;29.50;99.90;;;;;;5014834;28;20022;-74
2023/07/20 19:04:52;;;;;;;13.07;6.35;;;29.40;99.90;;;;;;5000184;28;20603;-75
2023/07/20 19:07:18;;;;;;;13.18;6.68;;;29.30;99.90;;;;;;5014920;28;20334;-75
2023/07/20 19:09:44;;;;;;;7.57;6.05;;;29.30;99.90;;;;;;5018060;28;20045;-75
2023/07/20 19:12:10;;;;;;;8.57;7.28;;;29.20;99.90;;;;;;5014329;28;20401;-75
2023/07/20 19:14:36;;;;;;;11.77;6.95;;;29.10;99.90;;;;;;5017014;28;20156;-75
2023/07/20 19:17:02;;;;;;;11.65;6.25;;;29.00;99.90;;;;;;5014902;28;20488;-75
2023/07/20 19:19:28;;;;;;;10.07;7.20;;;28.90;99.90;;;;;;5017972;28;20236;-75
2023/07/20 19:21:54;;;;;;;9.68;6.53;;;28.80;99.90;;;;;;5014827;28;20145;-75
2023/07/20 19:24:20;;;;;;;18.85;7.07;;;28.80;99.90;;;;;;5017462;28;20120;-75
2023/07/20 19:26:46;;;;;;;11.95;6.93;;;28.80;99.90;;;;;;5016842;28;20283;-74
2023/07/20 19:29:11;;;;;;;11.38;6.82;;;28.70;99.90;;;;;;5020057;28;20650;-75
2023/07/20 19:31:37;;;;;;;7.75;6.40;;;28.60;99.90;;;;;;5000027;28;20428;-75
2023/07/20 19:34:03;;;;;;;7.28;6.57;;;28.60;99.90;;;;;;5020431;28;20032;-75
2023/07/20 19:36:29;;;;;;;11.07;6.22;;;28.50;99.90;;;;;;5007423;28;20026;-75
2023/07/20 19:38:55;;;;;;;11.05;6.65;;;28.40;99.90;;;;;;5020195;28;20026;-75
2023/07/20 19:41:21;;;;;;;7.32;6.30;;;28.40;99.90;;;;;;5015935;28;20061;-75
2023/07/20 19:43:47;;;;;;;10.73;6.82;;;28.30;99.90;;;;;;5016336;28;20028;-75
2023/07/20 19:46:12;;;;;;;9.00;6.35;;;28.20;99.90;;;;;;5020226;28;20037;-75
2023/07/20 19:48:38;;;;;;;8.75;6.35;;;28.20;99.90;;;;;;5020272;28;20375;-75
2023/07/20 19:51:05;;;;;;;7.82;6.90;;;28.10;99.90;;;;;;5020757;28;20037;-75
2023/07/20 19:53:31;;;;;;;9.60;6.93;;;28.00;99.90;;;;;;5021693;28;20036;-75
2023/07/20 19:56:01;;;;;;;8.90;7.00;;;27.90;99.90;;;;;;5025638;28;20026;-75
2023/07/20 19:58:27;;;;;;;15.38;6.82;;;27.80;99.90;;;;;;5021359;28;20035;-75
2023/07/20 20:00:53;;;;;;;7.72;6.53;;;27.70;99.90;;;;;;5021875;28;20026;-75
2023/07/20 20:03:19;;;;;;;9.05;6.75;;;27.60;99.90;;;;;;5025120;28;20469;-75
2023/07/20 20:05:44;;;;;;;9.32;6.80;;;27.60;99.90;;;;;;5012316;28;20022;-75
2023/07/20 20:08:11;;;;;;;8.10;7.15;;;27.40;99.90;;;;;;5023480;28;20025;-75
2023/07/20 20:10:37;;;;;;;9.32;7.45;;;27.40;99.90;;;;;;5024018;28;20116;-75
2023/07/20 20:13:03;;;;;;;9.40;7.45;;;27.40;99.90;;;;;;5020070;28;20061;-75
2023/07/20 20:15:29;;;;;;;13.30;7.78;;;27.30;99.90;;;;;;5017178;28;20025;-75
2023/07/20 20:17:57;;;;;;;8.27;6.25;;;27.30;99.90;;;;;;5016599;28;20026;-75
2023/07/20 20:20:23;;;;;;;9.15;6.72;;;27.30;99.90;;;;;;5017410;28;20116;-75
2023/07/20 20:22:49;;;;;;;9.40;7.25;;;27.30;99.90;;;;;;5020492;28;20022;-75